Aviation Digital Data Service (ADDS)

Output produced by METARs form (0157 UTC 16 January 2019)
found at http://www.aviationweather.gov/metar/data/
 
WBSB 160130Z 06007KT 9999 FEW016 SCT140 BKN300 30/25 Q1011 NOSIG
TAF WBSB 152250Z 1600/1706 21003KT 9999 FEW014 
     BECMG 1604/1606 35010KT SCT015 FEW016CB 
     TEMPO 1609/1613 4000 TSRA SCT014 FEW016CB